sensor_id;sensor_type;location;lat;lon;timestamp;pressure;altitude;pressure_sealevel;temperature;humidity
74524;BME280;63074;44.696;10.358;2023-04-15T00:02:17;98789.22;;;9.51;56.62
74524;BME280;63074;44.696;10.358;2023-04-15T00:04:47;98785.47;;;9.15;58.07
74524;BME280;63074;44.696;10.358;2023-04-15T00:07:13;98785.28;;;9.27;58.37
74524;BME280;63074;44.696;10.358;2023-04-15T00:09:41;98786.78;;;9.12;59.11
74524;BME280;63074;44.696;10.358;2023-04-15T00:12:07;98791.47;;;9.32;59.04
74524;BME280;63074;44.696;10.358;2023-04-15T00:14:34;98787.00;;;9.43;57.12
74524;BME280;63074;44.696;10.358;2023-04-15T00:17:02;98791.34;;;9.49;55.17
74524;BME280;63074;44.696;10.358;2023-04-15T00:19:28;98789.81;;;9.63;54.89
74524;BME280;63074;44.696;10.358;2023-04-15T00:21:55;98788.78;;;9.69;54.52
74524;BME280;63074;44.696;10.358;2023-04-15T00:24:21;98781.47;;;9.60;53.66
74524;BME280;63074;44.696;10.358;2023-04-15T00:26:48;98779.81;;;9.54;53.82
74524;BME280;63074;44.696;10.358;2023-04-15T00:29:14;98791.03;;;9.45;54.14
74524;BME280;63074;44.696;10.358;2023-04-15T00:31:40;98785.91;;;9.39;54.70
74524;BME280;63074;44.696;10.358;2023-04-15T00:34:07;98787.44;;;9.30;54.22
74524;BME280;63074;44.696;10.358;2023-04-15T00:36:33;98789.50;;;8.86;55.78
74524;BME280;63074;44.696;10.358;2023-04-15T00:39:00;98781.03;;;8.94;55.01
74524;BME280;63074;44.696;10.358;2023-04-15T00:41:28;98788.25;;;8.98;54.18
74524;BME280;63074;44.696;10.358;2023-04-15T00:43:54;98774.44;;;9.11;53.52
74524;BME280;63074;44.696;10.358;2023-04-15T00:46:22;98777.06;;;9.38;53.17
74524;BME280;63074;44.696;10.358;2023-04-15T00:48:48;98764.81;;;9.53;52.40
74524;BME280;63074;44.696;10.358;2023-04-15T00:51:15;98772.28;;;9.45;52.75
74524;BME280;63074;44.696;10.358;2023-04-15T00:53:41;98775.06;;;9.19;53.91
74524;BME280;63074;44.696;10.358;2023-04-15T00:56:08;98786.41;;;8.99;54.94
74524;BME280;63074;44.696;10.358;2023-04-15T00:58:34;98783.81;;;8.77;55.32
74524;BME280;63074;44.696;10.358;2023-04-15T01:01:02;98783.75;;;8.72;56.01
74524;BME280;63074;44.696;10.358;2023-04-15T01:03:29;98780.59;;;8.48;56.08
74524;BME280;63074;44.696;10.358;2023-04-15T01:05:56;98777.34;;;8.46;56.88
74524;BME280;63074;44.696;10.358;2023-04-15T01:08:28;98784.97;;;8.32;57.54
74524;BME280;63074;44.696;10.358;2023-04-15T01:10:56;98782.88;;;8.39;57.08
74524;BME280;63074;44.696;10.358;2023-04-15T01:13:23;98788.38;;;8.28;57.51
74524;BME280;63074;44.696;10.358;2023-04-15T01:15:50;98789.56;;;7.93;59.02
74524;BME280;63074;44.696;10.358;2023-04-15T01:18:18;98792.25;;;7.93;60.05
74524;BME280;63074;44.696;10.358;2023-04-15T01:20:44;98790.63;;;7.92;60.22
74524;BME280;63074;44.696;10.358;2023-04-15T01:23:11;98790.72;;;7.80;60.85
74524;BME280;63074;44.696;10.358;2023-04-15T01:25:38;98787.13;;;7.92;60.55
74524;BME280;63074;44.696;10.358;2023-04-15T01:28:04;98790.81;;;8.07;59.73
74524;BME280;63074;44.696;10.358;2023-04-15T01:30:34;98786.22;;;8.03;59.80
74524;BME280;63074;44.696;10.358;2023-04-15T01:33:00;98778.28;;;8.13;59.85
74524;BME280;63074;44.696;10.358;2023-04-15T01:35:26;98777.88;;;7.99;60.08
74524;BME280;63074;44.696;10.358;2023-04-15T01:37:54;98785.66;;;8.01;60.21
74524;BME280;63074;44.696;10.358;2023-04-15T01:40:23;98773.84;;;7.97;60.85
74524;BME280;63074;44.696;10.358;2023-04-15T01:42:49;98784.28;;;7.98;61.17
74524;BME280;63074;44.696;10.358;2023-04-15T01:45:15;98777.50;;;7.91;61.80
74524;BME280;63074;44.696;10.358;2023-04-15T01:47:42;98772.13;;;8.12;61.14
74524;BME280;63074;44.696;10.358;2023-04-15T01:50:09;98770.97;;;8.03;60.93
74524;BME280;63074;44.696;10.358;2023-04-15T01:52:35;98769.66;;;8.06;60.65
74524;BME280;63074;44.696;10.358;2023-04-15T01:55:01;98782.72;;;8.24;60.21
74524;BME280;63074;44.696;10.358;2023-04-15T01:57:27;98771.75;;;8.26;60.59
74524;BME280;63074;44.696;10.358;2023-04-15T01:59:53;98777.22;;;8.14;60.67
74524;BME280;63074;44.696;10.358;2023-04-15T02:02:19;98776.59;;;8.29;59.66
74524;BME280;63074;44.696;10.358;2023-04-15T02:04:45;98777.41;;;8.29;59.83
74524;BME280;63074;44.696;10.358;2023-04-15T02:07:12;98773.63;;;8.25;60.43
74524;BME280;63074;44.696;10.358;2023-04-15T02:09:38;98772.63;;;8.09;61.04
74524;BME280;63074;44.696;10.358;2023-04-15T02:12:05;98765.97;;;8.12;61.09
74524;BME280;63074;44.696;10.358;2023-04-15T02:14:31;98766.72;;;7.86;63.01
74524;BME280;63074;44.696;10.358;2023-04-15T02:16:57;98768.66;;;7.90;62.63
74524;BME280;63074;44.696;10.358;2023-04-15T02:19:27;98770.66;;;8.00;62.66
74524;BME280;63074;44.696;10.358;2023-04-15T02:21:53;98774.31;;;7.94;63.21
74524;BME280;63074;44.696;10.358;2023-04-15T02:24:19;98770.97;;;8.03;63.08
74524;BME280;63074;44.696;10.358;2023-04-15T02:26:46;98769.16;;;7.87;63.69
74524;BME280;63074;44.696;10.358;2023-04-15T02:29:12;98766.94;;;7.79;64.39
74524;BME280;63074;44.696;10.358;2023-04-15T02:31:38;98760.97;;;7.72;65.38
74524;BME280;63074;44.696;10.358;2023-04-15T02:34:05;98758.94;;;7.62;65.90
74524;BME280;63074;44.696;10.358;2023-04-15T02:36:32;98766.06;;;7.73;66.47
74524;BME280;63074;44.696;10.358;2023-04-15T02:38:59;98772.81;;;7.81;66.13
74524;BME280;63074;44.696;10.358;2023-04-15T02:41:25;98775.25;;;7.83;65.85
74524;BME280;63074;44.696;10.358;2023-04-15T02:43:53;98770.88;;;7.55;67.94
74524;BME280;63074;44.696;10.358;2023-04-15T02:46:19;98766.00;;;7.52;68.54
74524;BME280;63074;44.696;10.358;2023-04-15T02:48:48;98766.00;;;7.52;68.10
74524;BME280;63074;44.696;10.358;2023-04-15T02:51:17;98764.84;;;7.64;67.16
74524;BME280;63074;44.696;10.358;2023-04-15T02:53:45;98768.34;;;7.87;65.89
74524;BME280;63074;44.696;10.358;2023-04-15T02:56:11;98764.25;;;7.79;66.58
74524;BME280;63074;44.696;10.358;2023-04-15T02:58:40;98766.63;;;7.75;66.52
74524;BME280;63074;44.696;10.358;2023-04-15T03:01:06;98769.22;;;7.70;67.28
74524;BME280;63074;44.696;10.358;2023-04-15T03:03:34;98768.16;;;7.50;69.57
74524;BME280;63074;44.696;10.358;2023-04-15T03:06:00;98773.63;;;7.21;71.73
74524;BME280;63074;44.696;10.358;2023-04-15T03:08:26;98779.13;;;7.15;73.30
74524;BME280;63074;44.696;10.358;2023-04-15T03:10:53;98770.28;;;7.31;74.36
74524;BME280;63074;44.696;10.358;2023-04-15T03:13:19;98773.06;;;7.19;76.17
74524;BME280;63074;44.696;10.358;2023-04-15T03:15:47;98772.41;;;7.12;78.33
74524;BME280;63074;44.696;10.358;2023-04-15T03:18:13;98769.47;;;7.30;76.97
74524;BME280;63074;44.696;10.358;2023-04-15T03:20:39;98774.22;;;7.28;77.81
74524;BME280;63074;44.696;10.358;2023-04-15T03:23:06;98772.47;;;7.00;81.16
74524;BME280;63074;44.696;10.358;2023-04-15T03:25:32;98777.03;;;7.17;80.14
74524;BME280;63074;44.696;10.358;2023-04-15T03:27:59;98781.56;;;7.16;81.73
74524;BME280;63074;44.696;10.358;2023-04-15T03:30:25;98785.03;;;7.17;82.43
74524;BME280;63074;44.696;10.358;2023-04-15T03:32:51;98774.25;;;7.11;83.44
74524;BME280;63074;44.696;10.358;2023-04-15T03:35:18;98773.66;;;7.43;81.13
74524;BME280;63074;44.696;10.358;2023-04-15T03:37:44;98769.00;;;7.55;80.22
74524;BME280;63074;44.696;10.358;2023-04-15T03:40:10;98777.72;;;7.29;83.39
74524;BME280;63074;44.696;10.358;2023-04-15T03:42:37;98784.78;;;7.01;86.99
74524;BME280;63074;44.696;10.358;2023-04-15T03:45:03;98782.03;;;6.96;91.02
74524;BME280;63074;44.696;10.358;2023-04-15T03:47:30;98788.16;;;6.63;94.78
74524;BME280;63074;44.696;10.358;2023-04-15T03:49:56;98774.97;;;6.73;97.04
74524;BME280;63074;44.696;10.358;2023-04-15T03:52:23;98777.78;;;6.67;99.19
74524;BME280;63074;44.696;10.358;2023-04-15T03:54:49;98777.06;;;6.71;100.00
74524;BME280;63074;44.696;10.358;2023-04-15T03:57:15;98779.97;;;6.70;99.65
74524;BME280;63074;44.696;10.358;2023-04-15T03:59:41;98788.47;;;6.67;100.00
74524;BME280;63074;44.696;10.358;2023-04-15T04:02:07;98785.88;;;6.72;100.00
74524;BME280;63074;44.696;10.358;2023-04-15T04:04:33;98790.94;;;6.85;100.00
74524;BME280;63074;44.696;10.358;2023-04-15T04:06:59;98794.22;;;6.75;100.00
74524;BME280;63074;44.696;10.358;2023-04-15T04:09:26;98799.09;;;6.62;100.00
74524;BME280;63074;44.696;10.358;2023-04-15T04:11:52;98802.00;;;6.60;100.00
74524;BME280;63074;44.696;10.358;2023-04-15T04:14:19;98804.53;;;6.84;100.00
74524;BME280;63074;44.696;10.358;2023-04-15T04:16:45;98810.94;;;6.54;100.00
74524;BME280;63074;44.696;10.358;2023-04-15T04:19:11;98804.19;;;6.80;100.00
74524;BME280;63074;44.696;10.358;2023-04-15T04:21:37;98815.09;;;6.62;100.00
74524;BME280;63074;44.696;10.358;2023-04-15T04:24:04;98808.00;;;6.84;100.00
74524;BME280;63074;44.696;10.358;2023-04-15T04:26:30;98810.00;;;6.77;100.00
74524;BME280;63074;44.696;10.358;2023-04-15T04:28:56;98803.88;;;6.93;100.00
74524;BME280;63074;44.696;10.358;2023-04-15T04:31:23;98813.03;;;6.97;100.00
74524;BME280;63074;44.696;10.358;2023-04-15T04:33:49;98817.72;;;6.90;100.00
74524;BME280;63074;44.696;10.358;2023-04-15T04:36:15;98821.78;;;6.93;100.00
74524;BME280;63074;44.696;10.358;2023-04-15T04:38:41;98824.50;;;6.98;100.00
74524;BME280;63074;44.696;10.358;2023-04-15T04:41:08;98826.56;;;7.07;100.00
74524;BME280;63074;44.696;10.358;2023-04-15T04:43:34;98822.75;;;6.87;100.00
74524;BME280;63074;44.696;10.358;2023-04-15T04:46:00;98826.69;;;6.84;100.00
74524;BME280;63074;44.696;10.358;2023-04-15T04:48:26;98827.03;;;6.88;100.00
74524;BME280;63074;44.696;10.358;2023-04-15T04:50:52;98833.91;;;6.84;100.00
74524;BME280;63074;44.696;10.358;2023-04-15T04:53:19;98841.56;;;6.80;100.00
74524;BME280;63074;44.696;10.358;2023-04-15T04:55:45;98844.25;;;6.80;100.00
74524;BME280;63074;44.696;10.358;2023-04-15T04:58:11;98844.47;;;6.78;100.00
74524;BME280;63074;44.696;10.358;2023-04-15T05:00:39;98840.19;;;6.77;100.00
74524;BME280;63074;44.696;10.358;2023-04-15T05:03:05;98844.72;;;6.77;100.00
74524;BME280;63074;44.696;10.358;2023-04-15T05:05:31;98854.94;;;6.80;100.00
74524;BME280;63074;44.696;10.358;2023-04-15T05:07:58;98851.78;;;6.55;100.00
74524;BME280;63074;44.696;10.358;2023-04-15T05:10:24;98857.13;;;6.55;100.00
74524;BME280;63074;44.696;10.358;2023-04-15T05:12:50;98855.31;;;6.43;100.00
74524;BME280;63074;44.696;10.358;2023-04-15T05:15:17;98860.41;;;6.45;100.00
74524;BME280;63074;44.696;10.358;2023-04-15T05:17:43;98866.78;;;6.44;100.00
74524;BME280;63074;44.696;10.358;2023-04-15T05:20:10;98873.81;;;6.62;100.00
74524;BME280;63074;44.696;10.358;2023-04-15T05:22:36;98867.22;;;6.53;100.00
74524;BME280;63074;44.696;10.358;2023-04-15T05:25:03;98866.66;;;6.51;100.00
74524;BME280;63074;44.696;10.358;2023-04-15T05:27:29;98866.28;;;6.59;100.00
74524;BME280;63074;44.696;10.358;2023-04-15T05:29:55;98879.22;;;6.67;100.00
74524;BME280;63074;44.696;10.358;2023-04-15T05:32:21;98876.75;;;6.77;100.00
74524;BME280;63074;44.696;10.358;2023-04-15T05:34:48;98883.81;;;6.83;100.00
74524;BME280;63074;44.696;10.358;2023-04-15T05:37:14;98878.59;;;6.88;100.00
74524;BME280;63074;44.696;10.358;2023-04-15T05:39:40;98876.72;;;7.05;100.00
74524;BME280;63074;44.696;10.358;2023-04-15T05:42:07;98884.66;;;7.00;100.00
74524;BME280;63074;44.696;10.358;2023-04-15T05:44:33;98887.75;;;7.26;100.00
74524;BME280;63074;44.696;10.358;2023-04-15T05:46:59;98894.56;;;7.17;100.00
74524;BME280;63074;44.696;10.358;2023-04-15T05:49:25;98894.34;;;7.18;100.00
74524;BME280;63074;44.696;10.358;2023-04-15T05:51:52;98896.59;;;7.26;100.00
74524;BME280;63074;44.696;10.358;2023-04-15T05:54:18;98896.84;;;7.41;100.00
74524;BME280;63074;44.696;10.358;2023-04-15T05:56:44;98892.53;;;7.57;100.00
74524;BME280;63074;44.696;10.358;2023-04-15T05:59:10;98888.56;;;7.76;100.00
74524;BME280;63074;44.696;10.358;2023-04-15T06:01:37;98886.03;;;7.87;100.00
74524;BME280;63074;44.696;10.358;2023-04-15T06:04:03;98892.09;;;7.99;100.00
74524;BME280;63074;44.696;10.358;2023-04-15T06:06:29;98883.03;;;8.22;100.00
74524;BME280;63074;44.696;10.358;2023-04-15T06:08:57;98888.91;;;8.40;100.00
74524;BME280;63074;44.696;10.358;2023-04-15T06:11:23;98896.66;;;8.59;100.00
74524;BME280;63074;44.696;10.358;2023-04-15T06:13:49;98890.56;;;8.68;100.00
74524;BME280;63074;44.696;10.358;2023-04-15T06:16:15;98889.88;;;8.78;100.00
74524;BME280;63074;44.696;10.358;2023-04-15T06:18:42;98889.44;;;8.86;100.00
74524;BME280;63074;44.696;10.358;2023-04-15T06:21:08;98898.63;;;8.95;100.00
74524;BME280;63074;44.696;10.358;2023-04-15T06:23:35;98895.56;;;9.08;100.00
74524;BME280;63074;44.696;10.358;2023-04-15T06:26:02;98893.88;;;9.29;100.00
74524;BME280;63074;44.696;10.358;2023-04-15T06:28:28;98899.97;;;9.57;100.00
74524;BME280;63074;44.696;10.358;2023-04-15T06:30:54;98900.66;;;9.74;100.00
74524;BME280;63074;44.696;10.358;2023-04-15T06:33:21;98885.44;;;9.85;100.00
74524;BME280;63074;44.696;10.358;2023-04-15T06:35:47;98889.97;;;9.84;98.44
74524;BME280;63074;44.696;10.358;2023-04-15T06:38:14;98887.59;;;9.88;96.55
74524;BME280;63074;44.696;10.358;2023-04-15T06:40:40;98897.06;;;10.00;97.80
74524;BME280;63074;44.696;10.358;2023-04-15T06:43:08;98900.03;;;9.99;96.42
74524;BME280;63074;44.696;10.358;2023-04-15T06:45:35;98889.06;;;10.05;97.82
74524;BME280;63074;44.696;10.358;2023-04-15T06:48:01;98896.81;;;10.02;93.48
74524;BME280;63074;44.696;10.358;2023-04-15T06:50:27;98897.88;;;10.01;93.26
74524;BME280;63074;44.696;10.358;2023-04-15T06:52:54;98882.81;;;9.95;93.76
74524;BME280;63074;44.696;10.358;2023-04-15T06:55:21;98889.34;;;10.14;93.21
74524;BME280;63074;44.696;10.358;2023-04-15T06:57:47;98882.66;;;10.16;92.22
74524;BME280;63074;44.696;10.358;2023-04-15T07:00:14;98883.63;;;10.37;92.79
74524;BME280;63074;44.696;10.358;2023-04-15T07:02:40;98880.16;;;10.52;91.95
74524;BME280;63074;44.696;10.358;2023-04-15T07:05:07;98883.13;;;10.56;92.94
74524;BME280;63074;44.696;10.358;2023-04-15T07:07:33;98881.19;;;10.41;96.18
74524;BME280;63074;44.696;10.358;2023-04-15T07:09:59;98891.13;;;10.35;97.23
74524;BME280;63074;44.696;10.358;2023-04-15T07:12:27;98890.97;;;10.15;100.00
74524;BME280;63074;44.696;10.358;2023-04-15T07:14:53;98895.44;;;10.36;100.00
74524;BME280;63074;44.696;10.358;2023-04-15T07:17:20;98896.81;;;10.49;100.00
74524;BME280;63074;44.696;10.358;2023-04-15T07:19:46;98894.38;;;10.47;100.00
74524;BME280;63074;44.696;10.358;2023-04-15T07:22:12;98894.91;;;10.44;100.00
74524;BME280;63074;44.696;10.358;2023-04-15T07:24:38;98892.78;;;10.52;100.00
74524;BME280;63074;44.696;10.358;2023-04-15T07:27:04;98897.34;;;10.51;100.00
74524;BME280;63074;44.696;10.358;2023-04-15T07:29:31;98914.22;;;10.36;100.00
74524;BME280;63074;44.696;10.358;2023-04-15T07:31:57;98906.56;;;10.65;100.00
74524;BME280;63074;44.696;10.358;2023-04-15T07:34:23;98908.38;;;10.55;100.00
74524;BME280;63074;44.696;10.358;2023-04-15T07:36:50;98912.38;;;10.47;100.00
74524;BME280;63074;44.696;10.358;2023-04-15T07:39:19;98907.31;;;10.56;100.00
74524;BME280;63074;44.696;10.358;2023-04-15T07:41:45;98912.91;;;10.44;100.00
74524;BME280;63074;44.696;10.358;2023-04-15T07:44:12;98910.72;;;10.36;100.00
74524;BME280;63074;44.696;10.358;2023-04-15T07:46:38;98915.41;;;10.61;100.00
74524;BME280;63074;44.696;10.358;2023-04-15T07:49:04;98919.03;;;10.34;100.00
74524;BME280;63074;44.696;10.358;2023-04-15T07:51:30;98917.31;;;10.65;100.00
74524;BME280;63074;44.696;10.358;2023-04-15T07:53:57;98908.66;;;10.58;100.00
74524;BME280;63074;44.696;10.358;2023-04-15T07:56:23;98905.19;;;10.63;100.00
74524;BME280;63074;44.696;10.358;2023-04-15T07:58:49;98903.66;;;10.87;100.00
74524;BME280;63074;44.696;10.358;2023-04-15T08:01:16;98903.16;;;10.95;100.00
74524;BME280;63074;44.696;10.358;2023-04-15T08:03:42;98905.06;;;11.15;99.84
74524;BME280;63074;44.696;10.358;2023-04-15T08:06:08;98903.19;;;11.26;100.00
74524;BME280;63074;44.696;10.358;2023-04-15T08:08:34;98910.75;;;11.44;100.00
74524;BME280;63074;44.696;10.358;2023-04-15T08:11:01;98911.53;;;11.65;100.00
74524;BME280;63074;44.696;10.358;2023-04-15T08:13:27;98911.53;;;11.44;98.44
74524;BME280;63074;44.696;10.358;2023-04-15T08:18:39;98901.84;;;11.74;96.73
74524;BME280;63074;44.696;10.358;2023-04-15T08:21:05;98898.59;;;12.02;95.94
74524;BME280;63074;44.696;10.358;2023-04-15T08:23:31;98900.50;;;12.02;94.84
74524;BME280;63074;44.696;10.358;2023-04-15T08:25:58;98903.19;;;11.97;94.24
74524;BME280;63074;44.696;10.358;2023-04-15T08:28:24;98898.00;;;12.31;93.61
74524;BME280;63074;44.696;10.358;2023-04-15T08:30:52;98907.06;;;12.55;90.78
74524;BME280;63074;44.696;10.358;2023-04-15T08:33:18;98902.44;;;12.66;89.82
74524;BME280;63074;44.696;10.358;2023-04-15T08:35:45;98907.34;;;12.48;89.89
74524;BME280;63074;44.696;10.358;2023-04-15T08:38:11;98902.31;;;12.22;91.59
74524;BME280;63074;44.696;10.358;2023-04-15T08:40:42;98905.00;;;12.22;91.59
74524;BME280;63074;44.696;10.358;2023-04-15T08:43:33;98909.84;;;12.30;92.37
74524;BME280;63074;44.696;10.358;2023-04-15T08:46:00;98913.16;;;12.06;92.98
74524;BME280;63074;44.696;10.358;2023-04-15T08:48:32;98904.47;;;12.25;90.29
74524;BME280;63074;44.696;10.358;2023-04-15T08:51:00;98905.41;;;12.69;90.29
74524;BME280;63074;44.696;10.358;2023-04-15T08:53:29;98906.13;;;12.80;89.17
74524;BME280;63074;44.696;10.358;2023-04-15T08:55:56;98905.06;;;12.76;87.42
74524;BME280;63074;44.696;10.358;2023-04-15T08:58:24;98896.81;;;12.62;88.60
74524;BME280;63074;44.696;10.358;2023-04-15T09:00:51;98904.78;;;12.82;87.93
74524;BME280;63074;44.696;10.358;2023-04-15T09:03:18;98906.75;;;13.21;85.41
74524;BME280;63074;44.696;10.358;2023-04-15T09:05:45;98905.81;;;12.92;84.81
74524;BME280;63074;44.696;10.358;2023-04-15T09:08:11;98901.31;;;13.26;85.66
74524;BME280;63074;44.696;10.358;2023-04-15T09:10:38;98905.31;;;13.68;85.09
74524;BME280;63074;44.696;10.358;2023-04-15T09:13:04;98895.38;;;13.58;84.25
74524;BME280;63074;44.696;10.358;2023-04-15T09:15:32;98899.75;;;13.54;82.42
74524;BME280;63074;44.696;10.358;2023-04-15T09:17:58;98893.94;;;13.71;82.94
74524;BME280;63074;44.696;10.358;2023-04-15T09:20:24;98897.88;;;14.12;79.67
74524;BME280;63074;44.696;10.358;2023-04-15T09:22:51;98893.84;;;13.52;79.63
74524;BME280;63074;44.696;10.358;2023-04-15T09:25:25;98882.06;;;13.72;81.93
74524;BME280;63074;44.696;10.358;2023-04-15T09:27:59;98895.31;;;13.97;81.53
74524;BME280;63074;44.696;10.358;2023-04-15T09:30:27;98893.75;;;14.15;80.69
74524;BME280;63074;44.696;10.358;2023-04-15T09:32:56;98883.25;;;14.37;79.48
74524;BME280;63074;44.696;10.358;2023-04-15T09:35:23;98883.63;;;14.55;79.37
74524;BME280;63074;44.696;10.358;2023-04-15T09:37:50;98881.09;;;14.82;76.67
74524;BME280;63074;44.696;10.358;2023-04-15T09:40:39;98879.56;;;15.13;74.23
74524;BME280;63074;44.696;10.358;2023-04-15T09:43:07;98878.78;;;14.94;74.51
74524;BME280;63074;44.696;10.358;2023-04-15T09:45:34;98872.22;;;14.58;76.85
74524;BME280;63074;44.696;10.358;2023-04-15T09:48:22;98871.84;;;14.16;78.12
74524;BME280;63074;44.696;10.358;2023-04-15T09:50:51;98866.59;;;14.73;76.06
74524;BME280;63074;44.696;10.358;2023-04-15T09:53:23;98870.94;;;14.26;74.03
74524;BME280;63074;44.696;10.358;2023-04-15T09:55:57;98868.91;;;14.42;75.74
74524;BME280;63074;44.696;10.358;2023-04-15T09:58:30;98866.31;;;14.74;75.07
74524;BME280;63074;44.696;10.358;2023-04-15T10:00:58;98871.16;;;14.77;73.12
74524;BME280;63074;44.696;10.358;2023-04-15T10:03:30;98868.00;;;15.08;73.11
74524;BME280;63074;44.696;10.358;2023-04-15T10:05:59;98863.38;;;15.46;72.40
74524;BME280;63074;44.696;10.358;2023-04-15T10:08:31;98859.16;;;15.02;73.22
74524;BME280;63074;44.696;10.358;2023-04-15T10:10:58;98860.88;;;15.31;72.09
74524;BME280;63074;44.696;10.358;2023-04-15T10:13:26;98856.22;;;16.15;71.43
74524;BME280;63074;44.696;10.358;2023-04-15T10:15:59;98858.63;;;16.16;71.54
74524;BME280;63074;44.696;10.358;2023-04-15T10:18:27;98860.69;;;16.19;70.19
74524;BME280;63074;44.696;10.358;2023-04-15T10:20:54;98853.53;;;16.92;67.74
74524;BME280;63074;44.696;10.358;2023-04-15T10:23:22;98852.97;;;16.27;68.36
74524;BME280;63074;44.696;10.358;2023-04-15T10:25:51;98846.44;;;16.00;68.65
74524;BME280;63074;44.696;10.358;2023-04-15T10:28:17;98841.34;;;16.40;68.76
74524;BME280;63074;44.696;10.358;2023-04-15T10:30:45;98842.13;;;16.68;66.89
74524;BME280;63074;44.696;10.358;2023-04-15T10:33:13;98836.34;;;17.19;65.47
74524;BME280;63074;44.696;10.358;2023-04-15T10:35:42;98835.19;;;16.62;65.63
74524;BME280;63074;44.696;10.358;2023-04-15T10:38:31;98847.13;;;16.61;67.19
74524;BME280;63074;44.696;10.358;2023-04-15T10:43:53;98841.91;;;16.50;65.72
74524;BME280;63074;44.696;10.358;2023-04-15T10:46:44;98833.31;;;17.65;63.15
74524;BME280;63074;44.696;10.358;2023-04-15T10:49:15;98829.69;;;16.39;65.39
74524;BME280;63074;44.696;10.358;2023-04-15T10:51:45;98834.25;;;17.61;64.20
74524;BME280;63074;44.696;10.358;2023-04-15T10:59:29;98827.75;;;17.70;69.01
74524;BME280;63074;44.696;10.358;2023-04-15T11:02:00;98822.19;;;17.08;63.12
74524;BME280;63074;44.696;10.358;2023-04-15T11:04:55;98815.16;;;18.71;59.70
74524;BME280;63074;44.696;10.358;2023-04-15T11:12:57;98820.22;;;18.46;56.33
74524;BME280;63074;44.696;10.358;2023-04-15T11:15:33;98816.97;;;17.57;59.16
74524;BME280;63074;44.696;10.358;2023-04-15T11:20:34;98815.50;;;18.95;56.62
74524;BME280;63074;44.696;10.358;2023-04-15T11:23:01;98818.69;;;18.14;60.55
74524;BME280;63074;44.696;10.358;2023-04-15T11:25:28;98821.16;;;17.94;60.29
74524;BME280;63074;44.696;10.358;2023-04-15T11:27:58;98807.81;;;18.23;59.89
74524;BME280;63074;44.696;10.358;2023-04-15T11:30:26;98823.50;;;17.78;60.58
74524;BME280;63074;44.696;10.358;2023-04-15T11:32:56;98817.13;;;18.31;58.50
74524;BME280;63074;44.696;10.358;2023-04-15T11:35:23;98812.75;;;18.61;57.87
74524;BME280;63074;44.696;10.358;2023-04-15T11:37:49;98812.28;;;18.84;59.61
74524;BME280;63074;44.696;10.358;2023-04-15T11:40:16;98816.78;;;18.98;59.21
74524;BME280;63074;44.696;10.358;2023-04-15T11:42:47;98808.41;;;20.39;56.43
74524;BME280;63074;44.696;10.358;2023-04-15T11:45:28;98807.63;;;20.60;55.04
74524;BME280;63074;44.696;10.358;2023-04-15T11:47:54;98803.75;;;19.46;56.96
74524;BME280;63074;44.696;10.358;2023-04-15T11:50:29;98810.75;;;19.73;54.89
74524;BME280;63074;44.696;10.358;2023-04-15T11:52:58;98802.22;;;19.83;54.18
74524;BME280;63074;44.696;10.358;2023-04-15T11:55:24;98803.78;;;19.12;54.99
74524;BME280;63074;44.696;10.358;2023-04-15T12:00:33;98800.38;;;20.34;52.92
74524;BME280;63074;44.696;10.358;2023-04-15T12:03:21;98803.94;;;20.26;51.87
74524;BME280;63074;44.696;10.358;2023-04-15T12:06:30;98801.00;;;21.32;50.56
74524;BME280;63074;44.696;10.358;2023-04-15T12:14:09;98802.88;;;22.09;46.60
74524;BME280;63074;44.696;10.358;2023-04-15T12:16:39;98799.88;;;21.90;46.30
74524;BME280;63074;44.696;10.358;2023-04-15T12:19:08;98804.84;;;20.47;45.60
74524;BME280;63074;44.696;10.358;2023-04-15T12:21:36;98794.59;;;20.44;47.36
74524;BME280;63074;44.696;10.358;2023-04-15T12:24:05;98795.97;;;18.93;47.88
74524;BME280;63074;44.696;10.358;2023-04-15T12:26:52;98794.22;;;19.78;47.88
74524;BME280;63074;44.696;10.358;2023-04-15T12:29:23;98798.66;;;20.80;49.39
74524;BME280;63074;44.696;10.358;2023-04-15T12:32:05;98800.59;;;20.59;46.39
74524;BME280;63074;44.696;10.358;2023-04-15T12:34:34;98789.66;;;21.21;47.29
74524;BME280;63074;44.696;10.358;2023-04-15T12:37:03;98797.91;;;21.78;46.02
74524;BME280;63074;44.696;10.358;2023-04-15T12:39:34;98791.47;;;22.07;45.18
74524;BME280;63074;44.696;10.358;2023-04-15T12:42:02;98795.41;;;21.07;47.06
74524;BME280;63074;44.696;10.358;2023-04-15T12:44:29;98796.56;;;20.27;46.98
74524;BME280;63074;44.696;10.358;2023-04-15T12:46:56;98789.13;;;20.86;46.64
74524;BME280;63074;44.696;10.358;2023-04-15T12:49:23;98795.69;;;21.47;47.05
74524;BME280;63074;44.696;10.358;2023-04-15T12:51:51;98802.31;;;21.26;46.82
74524;BME280;63074;44.696;10.358;2023-04-15T12:54:18;98802.09;;;21.10;47.46
74524;BME280;63074;44.696;10.358;2023-04-15T12:56:45;98804.59;;;22.14;45.78
74524;BME280;63074;44.696;10.358;2023-04-15T12:59:13;98802.34;;;21.83;44.60
74524;BME280;63074;44.696;10.358;2023-04-15T13:01:39;98814.50;;;21.61;45.10
74524;BME280;63074;44.696;10.358;2023-04-15T13:04:06;98811.28;;;22.04;44.66
74524;BME280;63074;44.696;10.358;2023-04-15T13:06:32;98803.22;;;22.97;44.26
74524;BME280;63074;44.696;10.358;2023-04-15T13:08:59;98807.41;;;22.78;44.35
74524;BME280;63074;44.696;10.358;2023-04-15T13:11:27;98809.78;;;22.80;43.85
74524;BME280;63074;44.696;10.358;2023-04-15T13:13:56;98793.31;;;23.20;43.29
74524;BME280;63074;44.696;10.358;2023-04-15T13:16:23;98796.53;;;22.70;46.10
74524;BME280;63074;44.696;10.358;2023-04-15T13:18:49;98803.56;;;22.06;45.97
74524;BME280;63074;44.696;10.358;2023-04-15T13:21:16;98783.69;;;20.36;47.54
74524;BME280;63074;44.696;10.358;2023-04-15T13:23:42;98797.72;;;23.09;45.40